Rivolto Air Base

LIPI · Friuli Venezia Giulia, 意大利

METAR的历史 LIPI · Rivolto Air Base

下面你可以看到过去几天的METARs。 选择年份以浏览从2007年开始的旧METAR。

2022年12月1日

时间 代码 天气 温度 能见度 天花板 METAR/SPECI
19:55
V
9 °C 10 km+ - 050° 050° 10 kt METAR LIPI 011855Z 05010KT 9999 SCT050 SCT060 09/03 Q1017 RMK BKN VIS MIN 9999 WIND THR06 08010KT WIND THR24 06013KT BLU
18:55
V
9 °C 10 km+ 6.000 ft 040° 040° 10 kt METAR LIPI 011755Z 04010KT 9999 FEW050 BKN060 09/03 Q1017
17:55
V
9 °C 10 km+ 6.000 ft 050° 050° 7 kt METAR LIPI 011655Z 05007KT 9999 BKN060 SCT070 09/03 Q1017 RMK BKN VIS MIN 9999 WIND THR06 09008KT WIND THR24 07007KT BLU
16:55
V
10 °C 10 km+ 6.000 ft 060° 060° 11 kt METAR LIPI 011555Z 06011KT 9999 BKN060 SCT070 10/02 Q1017 RMK BKN VIS MIN 9999 WIND THR06 10011KT WIND THR24 07011KT BLU
15:55
V
10 °C 10 km+ 6.000 ft 050° 050° 8 kt METAR LIPI 011455Z 05008KT 9999 BKN060 SCT070 10/03 Q1016
14:55
V
10 °C 10 km+ 6.000 ft 060° 060° 12 kt METAR LIPI 011355Z 06012KT 9999 BKN060 SCT070 10/03 Q1016
13:55
V
11 °C 10 km+ - 060° 060° 11 kt METAR LIPI 011255Z 06011KT 9999 FEW060 SCT070 11/03 Q1017
12:55
V
11 °C 10 km+ - 050° 050° 13 kt METAR LIPI 011155Z 05013KT 9999 SCT070 11/03 Q1017
11:55
V
11 °C 10 km+ - 050° 050° 11 kt METAR LIPI 011055Z 05011KT 9999 FEW070 11/03 Q1017
10:55
V
11 °C 10 km+ - 050° 050° 14 kt METAR LIPI 010955Z 05014KT 9999 FEW070 11/02 Q1018 RMK SCT SCT200 VIS MIN 9999 WIND THR06 08013KT WIND THR24 05015KT BLU
09:55
V
9 °C 10 km+ - 040° 040° 8 kt METAR LIPI 010855Z 04008KT 9999 FEW070 09/02 Q1018
08:55
V
9 °C 10 km+ 7.000 ft 040° 040° 8 kt METAR LIPI 010755Z 04008KT 9999 FEW030 BKN070 09/02 Q1017
07:55
V
8 °C 10 km+ 7.000 ft 040° 040° 8 kt METAR LIPI 010655Z 04008KT 9999 FEW040 BKN070 08/02 Q1017
06:55
V
7 °C 10 km+ 8.000 ft 050° 050° 7 kt METAR LIPI 010555Z 05007KT 9999 FEW040 BKN080 07/02 Q1017 RMK BKN VIS MIN 9999 WIND THR06 09007KT WIND THR24 07009KT BLU
05:55
V
7 °C 10 km+ 8.000 ft 020° 020° 3 kt METAR LIPI 010455Z 02003KT 9999 SCT060 BKN080 07/02 Q1017 RMK OVC VIS MIN 9999 WIND THR06 06004KT WIND THR24 04004KT BLU
04:55
V
8 °C 10 km+ 7.000 ft 020° 020° 4 kt METAR LIPI 010355Z 02004KT 9999 SCT060 BKN070 08/02 Q1017 RMK OVC VIS MIN 9999 WIND THR06 06006KT WIND THR24 04003KT BLU
03:55
V
8 °C 10 km+ 7.000 ft 010° 010° 5 kt METAR LIPI 010255Z 01005KT 9999 SCT060 BKN070 08/02 Q1017
02:55
V
8 °C 10 km+ 8.000 ft 040° 040° 7 kt METAR LIPI 010155Z 04007KT 9999 SCT060 BKN080 08/02 Q1017
01:55
V
7 °C 10 km+ 8.000 ft 040° 040° 4 kt METAR LIPI 010055Z 04004KT 9999 FEW050 OVC080 07/02 Q1017
00:55
V
7 °C 10 km+ 7.000 ft 070° 070° 5 kt METAR LIPI 302355Z 07005KT 9999 SCT060 BKN070 07/02 Q1017

2022年11月30日

时间 代码 天气 温度 能见度 天花板 METAR/SPECI
23:55
V
6 °C 10 km+ 8.000 ft 030° 030° 2 kt METAR LIPI 302255Z 03002KT 9999 SCT050 BKN080 06/02 Q1018 RMK OVC VIS MIN 9999 WIND THR06 36002KT WIND THR24 07006KT BLU
22:55
V
4 °C 10 km+ - 330° 330° 2 kt METAR LIPI 302155Z 33002KT 9999 SCT070 SCT090 04/01 Q1018
21:55
V
6 °C 10 km+ - 050° 050° 3 kt METAR LIPI 302055Z 05003KT 9999 SCT090 06/02 Q1017
20:55
V
6 °C 10 km+ - 360° 360° 2 kt METAR LIPI 301955Z 36002KT 9999 SCT070 SCT100 06/02 Q1017
19:55
V
6 °C 10 km+ - 040° 040° 4 kt METAR LIPI 301855Z 04004KT 9999 SCT080 SCT100 06/01 Q1017
18:55
V
6 °C 10 km+ - 060° 060° 4 kt METAR LIPI 301755Z 06004KT 9999 SCT080 06/01 Q1016
17:55
V
6 °C 10 km+ - 020° 020° 2 kt METAR LIPI 301655Z 02002KT 9999 SCT080 06/02 Q1016 RMK OVC BKN200 VIS MIN 9999 WIND THR06 07003KT WIND THR24 05002KT BLU
16:55
V
7 °C 10 km+ - 360° 360° 4 kt METAR LIPI 301555Z 36004KT 9999 SCT070 07/02 Q1017
15:55
V
9 °C 10 km+ - 060° 060° 5 kt METAR LIPI 301455Z 06005KT 9999 SCT070 09/02 Q1017
14:55
V
10 °C 10 km+ - 070° 070° 4 kt METAR LIPI 301355Z 07004KT 9999 SCT070 10/01 Q1017
13:55
V
10 °C 10 km+ - 040° 040° 4 kt METAR LIPI 301255Z 04004KT 9999 SCT080 10/01 Q1017 RMK BKN SCT200 VIS MIN 9999 WIND THR06 08005KT WIND THR24 02003KT BLU
12:55
V
9 °C 10 km+ - 020° 020° 4 kt METAR LIPI 301155Z 02004KT 9999 SCT070 09/02 Q1017
11:55
V
8 °C 10 km+ - 030° 030° 3 kt METAR LIPI 301055Z 03003KT 9999 FEW050 SCT070 08/02 Q1018
10:55
V
7 °C 10 km+ - 050° 050° 5 kt METAR LIPI 300955Z 05005KT 9999 FEW070 07/01 Q1018
09:55
V
7 °C 10 km+ - 320° 320° 4 kt METAR LIPI 300855Z 32004KT 9999 FEW070 07/01 Q1018
08:55
V
4 °C 10 km+ - 320° 320° 6 kt METAR LIPI 300755Z 32006KT CAVOK 04/00 Q1017
07:55
V
0 °C 10 km+ - 330° 330° 5 kt METAR LIPI 300655Z 33005KT CAVOK 00/M01 Q1017
06:55
V
0 °C 10 km+ - 300° 300° 3 kt METAR LIPI 300555Z 30003KT CAVOK 00/M02 Q1017
05:55
V
1 °C 10 km+ - 250° 250° 2 kt METAR LIPI 300455Z 25002KT CAVOK 01/M00 Q1017
04:55
V
1 °C 10 km+ - 320° 320° 1 kt METAR LIPI 300355Z 32001KT CAVOK 01/M01 Q1017
03:55
V
2 °C 10 km+ - 350° 350° 3 kt METAR LIPI 300255Z 35003KT CAVOK 02/00 Q1017
02:55
V
2 °C 10 km+ - 350° 350° 6 kt METAR LIPI 300155Z 35006KT CAVOK 02/M01 Q1017
01:55
V
2 °C 10 km+ - 340° 340° 5 kt METAR LIPI 300055Z 34005KT CAVOK 02/M02 Q1017
00:55
V
4 °C 10 km+ - 010° 010° 3 kt METAR LIPI 292355Z 01003KT CAVOK 04/M02 Q1017

2022年11月29日

时间 代码 天气 温度 能见度 天花板 METAR/SPECI
23:55
V
5 °C 10 km+ - 050° 050° 7 kt METAR LIPI 292255Z 05007KT CAVOK 05/M01 Q1017
22:55
V
4 °C 10 km+ - 050° 050° 6 kt METAR LIPI 292155Z 05006KT CAVOK 04/M01 Q1017
21:55
V
5 °C 10 km+ - 040° 040° 5 kt METAR LIPI 292055Z 04005KT CAVOK 05/M01 Q1017
20:55
V
5 °C 10 km+ - 040° 040° 6 kt METAR LIPI 291955Z 04006KT CAVOK 05/M01 Q1017 RMK SCT SCT120 VIS MIN 9999 WIND THR06 08006KT WIND THR24 06007KT BLU
19:55
V
5 °C 10 km+ - 040° 040° 6 kt METAR LIPI 291855Z 04006KT CAVOK 05/M01 Q1017
18:55
V
6 °C 10 km+ - 040° 040° 7 kt METAR LIPI 291755Z 04007KT CAVOK 06/M01 Q1016
17:55
V
6 °C 10 km+ - 050° 050° 9 kt METAR LIPI 291655Z 05009KT 9999 FEW100 06/M01 Q1017
16:55
V
7 °C 10 km+ - 050° 050° 10 kt METAR LIPI 291555Z 05010KT 9999 SCT070 SCT110 07/M00 Q1016
15:55
V
7 °C 10 km+ - 060° 060° 8 kt METAR LIPI 291455Z 06008KT 9999 FEW050 SCT110 07/M00 Q1016
14:55
V
8 °C 10 km+ - 060° 060° 13 kt METAR LIPI 291355Z 06013KT 9999 FEW040 SCT090 08/00 Q1016 RMK SCT VIS MIN 9999 WIND THR06 09011KT WIND THR24 07011KT BLU
13:55
V
8 °C 10 km+ 8.000 ft 050° 050° 11 kt METAR LIPI 291255Z 05011KT 9999 FEW030 SCT050 BKN080 08/00 Q1016
12:55
V
8 °C 10 km+ 11.000 ft 050° 050° 9 kt METAR LIPI 291155Z 05009KT 9999 FEW040 SCT060 BKN110 08/01 Q1016
11:55
V
7 °C 10 km+ 7.000 ft 040° 040° 10 kt METAR LIPI 291055Z 04010KT 9999 FEW030 OVC070 07/01 Q1016
10:55
V
7 °C 10 km+ 9.000 ft 040° 040° 11 kt METAR LIPI 290955Z 04011KT 9999 FEW030 SCT050 BKN090 07/01 Q1017

我们和第三方通过cookies跟踪您在我们网站上的互联网行为。如果你继续,我们认为你同意我们的饼干政策